EGCK weather

Caernarfon Airport
Caernarfon, Wales, United Kingdom

Public forecast

Using degrees Celsius for public forecast. Weather courtesy of forecast.io.

METAR (pilot weather report)

Closest report is Anglesey Airport, 11.3 nm (20.9 km) NW. Retrieved 2019/04/22 05:50 UTC (19 minutes ago):

EGOV 220550Z AUTO 09008KT 9999 NCD 11/04 Q1006

TAF (pilot weather forecast)

Forecast is more than 12 hours old.

Closest forecast is Anglesey Airport, 11.3 nm (20.9 km) NW. Retrieved 2017/07/19 06:33 UTC (2 years ago):

TAF TAF EGOV 190525Z 1906/1918 04008KT CAVOK PROB30 TEMPO 1906/1912 6000 SHRA TEMPO 1912/1915 4000 +SHRA SCT020 BKN030CB PROB30 TEMPO 1913/1915 VRBG20G30KT 2500 TSGR BKN012